Time;durP1;ratioP1;P1;durP2;ratioP2;P2;SDS_P1;SDS_P2;PMS_P1;PMS_P2;Temp;Humidity;BMP_temperature;BMP_pressure;BME280_temperature;BME280_humidity;BME280_pressure;Samples;Min_cycle;Max_cycle;Signal;HPM_P1;HPM_P2
2023/03/24 00:00:25;;;;;;;19.35;11.98;;;;;;;;;;5094881;28;20228;-43
2023/03/24 00:03:15;;;;;;;19.42;11.35;;;;;;;;;;5094712;28;20270;-43
2023/03/24 00:05:43;;;;;;;27.58;13.98;;;;;;;;;;5095262;28;20202;-44
2023/03/24 00:08:11;;;;;;;16.42;9.77;;;;;;;;;;5094850;28;20552;-43
2023/03/24 00:10:39;;;;;;;17.40;10.00;;;;;;;;;;5094770;28;20293;-43
2023/03/24 00:13:06;;;;;;;18.33;10.48;;;;;;;;;;5094999;28;20198;-42
2023/03/24 00:15:35;;;;;;;17.38;9.68;;;;;;;;;;5094772;28;20644;-42
2023/03/24 00:18:02;;;;;;;16.13;9.45;;;;;;;;;;5094876;28;20199;-42
2023/03/24 00:20:31;;;;;;;17.05;9.68;;;;;;;;;;5096856;28;20213;-43
2023/03/24 00:22:58;;;;;;;26.90;13.95;;;;;;;;;;5098930;28;20271;-43
2023/03/24 00:25:34;;;;;;;22.27;12.40;;;;;;;;;;5098912;28;20281;-42
2023/03/24 00:28:04;;;;;;;20.10;10.32;;;;;;;;;;5098778;28;20215;-42
2023/03/24 00:30:33;;;;;;;21.23;12.07;;;;;;;;;;5098546;28;20202;-43
2023/03/24 00:33:01;;;;;;;19.98;10.82;;;;;;;;;;5098760;28;20320;-43
2023/03/24 00:35:29;;;;;;;29.85;19.17;;;;;;;;;;5098822;28;20191;-43
2023/03/24 00:37:56;;;;;;;19.83;15.32;;;;;;;;;;5098547;28;20698;-43
2023/03/24 00:40:24;;;;;;;22.75;12.82;;;;;;;;;;5098447;28;20620;-42
2023/03/24 00:42:51;;;;;;;15.82;9.77;;;;;;;;;;5097565;28;20202;-42
2023/03/24 00:45:21;;;;;;;21.10;10.90;;;;;;;;;;5098225;28;20660;-44
2023/03/24 00:47:53;;;;;;;17.98;10.00;;;;;;;;;;5098321;28;20220;-43
2023/03/24 00:50:25;;;;;;;16.90;9.35;;;;;;;;;;5097627;28;20195;-42
2023/03/24 00:52:54;;;;;;;20.77;10.55;;;;;;;;;;5098421;28;20193;-44
2023/03/24 00:55:22;;;;;;;14.27;9.32;;;;;;;;;;5080737;28;20209;-43
2023/03/24 00:57:49;;;;;;;12.80;8.02;;;;;;;;;;5097191;28;20213;-43
2023/03/24 01:00:20;;;;;;;14.75;8.63;;;;;;;;;;5097355;28;20218;-43
2023/03/24 01:02:52;;;;;;;15.57;8.60;;;;;;;;;;5098424;28;20238;-42
2023/03/24 01:05:22;;;;;;;14.77;9.05;;;;;;;;;;5097434;28;20539;-43
2023/03/24 01:07:55;;;;;;;18.08;9.23;;;;;;;;;;5098250;28;20230;-42
2023/03/24 01:10:25;;;;;;;19.33;11.63;;;;;;;;;;5098110;28;20210;-43
2023/03/24 01:12:58;;;;;;;17.13;10.00;;;;;;;;;;5080889;28;20191;-43
2023/03/24 01:15:30;;;;;;;17.60;10.25;;;;;;;;;;5097236;28;20214;-44
2023/03/24 01:17:57;;;;;;;20.80;13.48;;;;;;;;;;5097898;28;20203;-43
2023/03/24 01:20:24;;;;;;;17.10;11.55;;;;;;;;;;5097794;28;20253;-44
2023/03/24 01:22:52;;;;;;;16.60;10.60;;;;;;;;;;5097846;28;20325;-43
2023/03/24 01:25:21;;;;;;;15.55;9.65;;;;;;;;;;5096890;28;20207;-42
2023/03/24 01:27:51;;;;;;;16.60;9.60;;;;;;;;;;5097516;28;20573;-42
2023/03/24 01:30:22;;;;;;;21.75;10.20;;;;;;;;;;5097655;28;20205;-42
2023/03/24 01:32:50;;;;;;;17.48;9.43;;;;;;;;;;5096894;28;20203;-43
2023/03/24 01:35:19;;;;;;;17.88;9.35;;;;;;;;;;5097802;28;20209;-43
2023/03/24 01:37:47;;;;;;;16.48;9.45;;;;;;;;;;5097805;28;20220;-42
2023/03/24 01:40:21;;;;;;;18.05;9.60;;;;;;;;;;5096654;28;20203;-43
2023/03/24 01:42:52;;;;;;;16.27;8.55;;;;;;;;;;5096575;28;20203;-42
2023/03/24 01:45:55;;;;;;;14.00;8.40;;;;;;;;;;5096373;28;20202;-43
2023/03/24 01:48:40;;;;;;;19.77;9.77;;;;;;;;;;5065423;28;20218;-42
2023/03/24 01:51:12;;;;;;;18.88;9.38;;;;;;;;;;5097603;28;20218;-42
2023/03/24 01:53:44;;;;;;;16.88;8.80;;;;;;;;;;5096504;28;20637;-43
2023/03/24 01:56:12;;;;;;;15.57;8.02;;;;;;;;;;5096798;28;20210;-43
2023/03/24 01:58:47;;;;;;;20.08;10.55;;;;;;;;;;5097149;28;20218;-42
2023/03/24 02:01:25;;;;;;;16.67;10.18;;;;;;;;;;5080694;28;20214;-42
2023/03/24 02:04:02;;;;;;;20.73;10.43;;;;;;;;;;5095978;28;20249;-42
2023/03/24 02:06:40;;;;;;;15.48;9.88;;;;;;;;;;5095957;28;20207;-43
2023/03/24 02:09:08;;;;;;;20.77;11.45;;;;;;;;;;5080403;28;20253;-43
2023/03/24 02:11:37;;;;;;;22.52;12.38;;;;;;;;;;5096006;28;20250;-43
2023/03/24 02:14:06;;;;;;;26.08;12.32;;;;;;;;;;5095875;28;20655;-43
2023/03/24 02:16:49;;;;;;;19.92;10.90;;;;;;;;;;5079338;28;20214;-43
2023/03/24 02:19:36;;;;;;;21.33;11.23;;;;;;;;;;5096315;28;20206;-43
2023/03/24 02:22:40;;;;;;;19.23;11.27;;;;;;;;;;5095740;28;20213;-42
2023/03/24 02:25:16;;;;;;;17.10;9.15;;;;;;;;;;5096389;28;20528;-42
2023/03/24 02:27:59;;;;;;;26.63;11.88;;;;;;;;;;5096098;28;20191;-43
2023/03/24 02:30:45;;;;;;;16.88;10.10;;;;;;;;;;5095908;28;20236;-42
2023/03/24 02:33:54;;;;;;;19.23;10.77;;;;;;;;;;5095540;28;20207;-44
2023/03/24 02:36:47;;;;;;;15.90;9.38;;;;;;;;;;5078972;28;20241;-43
2023/03/24 02:39:57;;;;;;;16.48;9.30;;;;;;;;;;5095538;28;20577;-43
2023/03/24 02:42:42;;;;;;;17.33;9.20;;;;;;;;;;5067964;28;20202;-43
2023/03/24 02:45:19;;;;;;;13.43;8.80;;;;;;;;;;5094580;28;20236;-43
2023/03/24 02:48:01;;;;;;;35.00;14.23;;;;;;;;;;5078544;28;20267;-43
2023/03/24 02:50:36;;;;;;;37.90;28.55;;;;;;;;;;5095295;28;20610;-42
2023/03/24 02:53:12;;;;;;;23.77;13.27;;;;;;;;;;5095476;28;20216;-42
2023/03/24 02:56:00;;;;;;;20.88;11.25;;;;;;;;;;5095164;28;20530;-42
2023/03/24 02:58:46;;;;;;;29.50;12.65;;;;;;;;;;5095372;28;20248;-42
2023/03/24 03:01:30;;;;;;;16.60;9.18;;;;;;;;;;5095163;28;20210;-43
2023/03/24 03:04:11;;;;;;;22.30;11.20;;;;;;;;;;5094753;28;20637;-42
2023/03/24 03:06:42;;;;;;;26.27;11.65;;;;;;;;;;5094943;28;20203;-43
2023/03/24 03:09:12;;;;;;;17.70;9.80;;;;;;;;;;5078435;28;20222;-43
2023/03/24 03:11:41;;;;;;;35.08;16.73;;;;;;;;;;5095103;28;20557;-42
2023/03/24 03:14:34;;;;;;;18.23;10.93;;;;;;;;;;5078054;28;20297;-43
2023/03/24 03:17:17;;;;;;;27.92;14.15;;;;;;;;;;5095596;28;20553;-43
2023/03/24 03:19:49;;;;;;;24.50;12.80;;;;;;;;;;5094836;28;20205;-43
2023/03/24 03:22:21;;;;;;;22.48;12.18;;;;;;;;;;5094895;28;20194;-44
2023/03/24 03:24:51;;;;;;;16.92;11.75;;;;;;;;;;5095249;28;20689;-44
2023/03/24 03:27:27;;;;;;;20.02;11.68;;;;;;;;;;5094481;28;20214;-43
2023/03/24 03:29:59;;;;;;;21.17;13.27;;;;;;;;;;5094178;28;20749;-42
2023/03/24 03:32:29;;;;;;;21.25;13.15;;;;;;;;;;5077785;28;20202;-43
2023/03/24 03:35:04;;;;;;;22.10;12.98;;;;;;;;;;5077813;28;20694;-45
2023/03/24 03:37:40;;;;;;;24.48;13.73;;;;;;;;;;5078125;28;20255;-42
2023/03/24 03:40:14;;;;;;;23.65;12.52;;;;;;;;;;5094203;28;20263;-43
2023/03/24 03:42:50;;;;;;;20.15;11.43;;;;;;;;;;5079221;28;20547;-43
2023/03/24 03:45:17;;;;;;;20.08;11.75;;;;;;;;;;5094311;28;20206;-43
2023/03/24 03:47:45;;;;;;;20.35;11.65;;;;;;;;;;5077347;28;20206;-43
2023/03/24 03:50:13;;;;;;;23.13;11.88;;;;;;;;;;5094475;28;20308;-43
2023/03/24 03:52:40;;;;;;;39.28;29.13;;;;;;;;;;5077314;28;20206;-44
2023/03/24 03:55:08;;;;;;;28.98;23.23;;;;;;;;;;5093697;28;20213;-43
2023/03/24 03:57:35;;;;;;;24.83;13.10;;;;;;;;;;5077595;28;20195;-43
2023/03/24 04:00:21;;;;;;;21.40;12.35;;;;;;;;;;5093941;28;20647;-42
2023/03/24 04:03:29;;;;;;;25.80;12.35;;;;;;;;;;5094765;28;20366;-42
2023/03/24 04:06:00;;;;;;;23.80;11.80;;;;;;;;;;5094950;28;20233;-43
2023/03/24 04:08:44;;;;;;;19.83;11.52;;;;;;;;;;5093553;28;20218;-43
2023/03/24 04:11:31;;;;;;;21.10;11.13;;;;;;;;;;5078639;28;20199;-43
2023/03/24 04:14:37;;;;;;;20.80;11.60;;;;;;;;;;5094573;28;20545;-43
2023/03/24 04:17:55;;;;;;;20.23;11.57;;;;;;;;;;5094283;28;20202;-44
2023/03/24 04:21:13;;;;;;;19.65;11.75;;;;;;;;;;5032511;28;20204;-43
2023/03/24 04:24:01;;;;;;;20.75;11.02;;;;;;;;;;5016345;28;20612;-43
2023/03/24 04:26:34;;;;;;;26.20;12.32;;;;;;;;;;5000273;28;20208;-44
2023/03/24 04:29:11;;;;;;;18.13;10.38;;;;;;;;;;5016036;28;20286;-43
2023/03/24 04:31:48;;;;;;;21.33;11.73;;;;;;;;;;5015367;28;20205;-43
2023/03/24 04:34:19;;;;;;;19.92;11.75;;;;;;;;;;5006623;28;20215;-44
2023/03/24 04:36:53;;;;;;;28.58;17.67;;;;;;;;;;5024999;28;20205;-43
2023/03/24 04:39:27;;;;;;;17.63;11.95;;;;;;;;;;5002410;28;20192;-43
2023/03/24 04:42:03;;;;;;;23.13;13.15;;;;;;;;;;5032359;28;20246;-43
2023/03/24 04:44:31;;;;;;;20.42;12.10;;;;;;;;;;5147957;23;20890;-48
2023/03/24 04:47:24;;;;;;;25.35;12.07;;;;;;;;;;5032522;28;20227;-46
2023/03/24 04:50:09;;;;;;;22.40;12.40;;;;;;;;;;5000233;28;20217;-49
2023/03/24 04:52:40;;;;;;;23.67;12.55;;;;;;;;;;5029559;28;20664;-46
2023/03/24 04:55:31;;;;;;;19.77;12.35;;;;;;;;;;4993699;28;20197;-48
2023/03/24 04:57:58;;;;;;;21.83;11.95;;;;;;;;;;5010560;28;20201;-49
2023/03/24 05:00:26;;;;;;;20.65;12.43;;;;;;;;;;5012432;28;20259;-46
2023/03/24 05:02:54;;;;;;;20.70;12.05;;;;;;;;;;5011225;28;20213;-46
2023/03/24 05:05:24;;;;;;;22.60;12.35;;;;;;;;;;5028747;28;20228;-50
2023/03/24 05:07:53;;;;;;;24.67;13.13;;;;;;;;;;5016148;28;20220;-45
2023/03/24 05:10:20;;;;;;;22.13;13.63;;;;;;;;;;5014641;28;20225;-49
2023/03/24 05:12:55;;;;;;;26.08;14.93;;;;;;;;;;5083787;22;20244;-58
2023/03/24 05:15:25;;;;;;;28.27;18.00;;;;;;;;;;5003581;28;20235;-59
2023/03/24 05:18:01;;;;;;;27.90;17.30;;;;;;;;;;5030380;28;20228;-59
2023/03/24 05:20:28;;;;;;;30.70;16.05;;;;;;;;;;5014907;28;20260;-58
2023/03/24 05:23:06;;;;;;;27.23;14.93;;;;;;;;;;5014348;28;20225;-59
2023/03/24 05:25:34;;;;;;;29.20;16.08;;;;;;;;;;5013941;28;20221;-57
2023/03/24 05:28:01;;;;;;;25.42;14.63;;;;;;;;;;5030248;28;20222;-59
2023/03/24 05:30:29;;;;;;;27.30;15.15;;;;;;;;;;5014241;28;20759;-58
2023/03/24 05:33:08;;;;;;;29.88;15.07;;;;;;;;;;5030679;28;20236;-59
2023/03/24 05:35:35;;;;;;;23.50;14.23;;;;;;;;;;5015281;28;20228;-58
2023/03/24 05:38:02;;;;;;;24.92;14.55;;;;;;;;;;5015227;28;20229;-58
2023/03/24 05:40:31;;;;;;;26.02;14.60;;;;;;;;;;5014096;28;20241;-59
2023/03/24 05:43:11;;;;;;;27.95;14.20;;;;;;;;;;5014197;28;20572;-58
2023/03/24 05:45:43;;;;;;;25.42;13.60;;;;;;;;;;5013977;28;20229;-60
2023/03/24 05:48:20;;;;;;;20.33;13.15;;;;;;;;;;4998646;28;20251;-59
2023/03/24 05:51:20;;;;;;;33.35;22.42;;;;;;;;;;4973313;28;20225;-59
2023/03/24 05:53:57;;;;;;;26.85;18.20;;;;;;;;;;4973877;28;20719;-60
2023/03/24 05:56:32;;;;;;;22.27;13.55;;;;;;;;;;4969950;28;20703;-60
2023/03/24 05:59:03;;;;;;;21.48;12.40;;;;;;;;;;4963203;28;20234;-58
2023/03/24 06:01:48;;;;;;;22.45;13.45;;;;;;;;;;4973615;28;20233;-59
2023/03/24 06:04:35;;;;;;;20.20;12.75;;;;;;;;;;4973459;28;20234;-59
2023/03/24 06:07:09;;;;;;;23.80;12.95;;;;;;;;;;4973279;28;20233;-59
2023/03/24 06:09:41;;;;;;;23.92;13.02;;;;;;;;;;4973859;28;20681;-58
2023/03/24 06:12:11;;;;;;;20.88;12.48;;;;;;;;;;4973910;28;20217;-57
2023/03/24 06:14:47;;;;;;;22.25;13.65;;;;;;;;;;4955269;29;20215;-55
2023/03/24 06:17:14;;;;;;;24.13;13.63;;;;;;;;;;4954834;28;20207;-56
2023/03/24 06:19:48;;;;;;;22.40;12.30;;;;;;;;;;4965950;28;20229;-49
2023/03/24 06:22:36;;;;;;;19.13;12.27;;;;;;;;;;4972254;28;20322;-55
2023/03/24 06:25:08;;;;;;;22.27;12.52;;;;;;;;;;4973502;28;20258;-57
2023/03/24 06:27:37;;;;;;;18.98;11.43;;;;;;;;;;5003165;28;20316;-56
2023/03/24 06:30:05;;;;;;;17.70;11.32;;;;;;;;;;5012763;28;20658;-58
2023/03/24 06:32:33;;;;;;;21.17;13.38;;;;;;;;;;5013301;28;20532;-58
2023/03/24 06:35:00;;;;;;;18.98;14.23;;;;;;;;;;5013977;28;20215;-58
2023/03/24 06:37:38;;;;;;;23.55;13.27;;;;;;;;;;5013976;28;20294;-58
2023/03/24 06:40:12;;;;;;;18.25;11.77;;;;;;;;;;5013643;28;20230;-58
2023/03/24 06:42:46;;;;;;;18.23;11.30;;;;;;;;;;5030320;28;20225;-58
2023/03/24 06:45:13;;;;;;;18.85;11.57;;;;;;;;;;5013655;28;20210;-58
2023/03/24 06:47:40;;;;;;;21.75;12.48;;;;;;;;;;5015088;28;20197;-58
2023/03/24 06:50:09;;;;;;;18.80;11.07;;;;;;;;;;5013752;28;20208;-58
2023/03/24 06:52:36;;;;;;;17.27;11.43;;;;;;;;;;5014589;28;20213;-58
2023/03/24 06:55:04;;;;;;;18.67;12.32;;;;;;;;;;5013628;28;20202;-58
2023/03/24 06:57:32;;;;;;;19.88;11.10;;;;;;;;;;5013438;28;20225;-58
2023/03/24 07:00:18;;;;;;;21.70;12.15;;;;;;;;;;5014945;28;20636;-58
2023/03/24 07:02:57;;;;;;;26.27;10.93;;;;;;;;;;5013643;28;20683;-58
2023/03/24 07:05:24;;;;;;;19.80;11.48;;;;;;;;;;5030043;28;20259;-58
2023/03/24 07:07:51;;;;;;;24.58;10.20;;;;;;;;;;5014500;28;20292;-57
2023/03/24 07:10:42;;;;;;;17.38;10.88;;;;;;;;;;5029641;28;20217;-58
2023/03/24 07:13:10;;;;;;;20.15;10.65;;;;;;;;;;5013151;28;20591;-58
2023/03/24 07:15:39;;;;;;;15.60;10.30;;;;;;;;;;5013345;28;20228;-57
2023/03/24 07:18:09;;;;;;;21.23;12.45;;;;;;;;;;5013440;28;20214;-58
2023/03/24 07:20:40;;;;;;;18.08;11.18;;;;;;;;;;5013014;28;20236;-58
2023/03/24 07:23:13;;;;;;;68.50;43.60;;;;;;;;;;5029744;28;20202;-58
2023/03/24 07:26:15;;;;;;;22.30;12.02;;;;;;;;;;4953715;29;20203;-58
2023/03/24 07:28:46;;;;;;;21.67;11.73;;;;;;;;;;4953849;28;20203;-58
2023/03/24 07:31:25;;;;;;;17.67;11.23;;;;;;;;;;4905142;29;20201;-58
2023/03/24 07:33:58;;;;;;;20.98;11.45;;;;;;;;;;4915633;29;20556;-59
2023/03/24 07:36:28;;;;;;;22.17;11.32;;;;;;;;;;4915457;29;20216;-59
2023/03/24 07:38:56;;;;;;;20.42;12.95;;;;;;;;;;4899736;29;20296;-59
2023/03/24 07:41:32;;;;;;;18.60;11.45;;;;;;;;;;4915357;29;20204;-59
2023/03/24 07:44:07;;;;;;;21.65;13.20;;;;;;;;;;4899657;29;20595;-58
2023/03/24 07:46:40;;;;;;;18.75;12.68;;;;;;;;;;4932605;29;20208;-58
2023/03/24 07:49:08;;;;;;;21.48;12.57;;;;;;;;;;4918773;29;20208;-58
2023/03/24 07:52:06;;;;;;;33.38;15.05;;;;;;;;;;4934007;29;20208;-58
2023/03/24 07:54:36;;;;;;;27.77;14.55;;;;;;;;;;4950391;29;20657;-57
2023/03/24 07:57:04;;;;;;;19.23;12.02;;;;;;;;;;4950466;29;20576;-59
2023/03/24 07:59:34;;;;;;;19.10;12.57;;;;;;;;;;4934466;28;20765;-58
2023/03/24 08:02:15;;;;;;;28.90;14.65;;;;;;;;;;5045606;28;20202;-58
2023/03/24 08:04:55;;;;;;;40.55;21.50;;;;;;;;;;5012797;28;20641;-58
2023/03/24 08:07:41;;;;;;;28.33;16.25;;;;;;;;;;5013961;28;20631;-57
2023/03/24 08:10:10;;;;;;;36.10;15.57;;;;;;;;;;5013549;28;20715;-58
2023/03/24 08:12:38;;;;;;;248.43;131.63;;;;;;;;;;5016166;28;20209;-57
2023/03/24 08:15:06;;;;;;;264.05;150.80;;;;;;;;;;5033118;28;20211;-58
2023/03/24 08:17:35;;;;;;;46.45;25.60;;;;;;;;;;5033382;28;20205;-58
2023/03/24 08:20:07;;;;;;;24.27;14.77;;;;;;;;;;5033087;28;20231;-58
2023/03/24 08:22:35;;;;;;;21.90;13.77;;;;;;;;;;5033433;28;20208;-58
2023/03/24 08:25:03;;;;;;;37.53;16.80;;;;;;;;;;5033369;28;20262;-58
2023/03/24 08:27:30;;;;;;;23.63;12.57;;;;;;;;;;5033329;28;20208;-58
2023/03/24 08:29:57;;;;;;;19.70;11.93;;;;;;;;;;5033309;28;20213;-58
2023/03/24 08:32:24;;;;;;;20.08;12.70;;;;;;;;;;5033339;28;20201;-58
2023/03/24 08:34:53;;;;;;;32.03;19.85;;;;;;;;;;5032981;28;20200;-58
2023/03/24 08:37:20;;;;;;;19.65;13.57;;;;;;;;;;5033060;28;20208;-58
2023/03/24 08:39:47;;;;;;;25.42;13.45;;;;;;;;;;5033185;28;20236;-58
2023/03/24 08:42:15;;;;;;;24.17;12.38;;;;;;;;;;5035332;28;20216;-58
2023/03/24 08:44:43;;;;;;;20.77;12.23;;;;;;;;;;5036766;28;20201;-58
2023/03/24 08:47:11;;;;;;;24.98;13.93;;;;;;;;;;5036956;28;20201;-58
2023/03/24 08:49:39;;;;;;;23.73;13.57;;;;;;;;;;5036942;28;20216;-57
2023/03/24 08:52:07;;;;;;;26.75;15.35;;;;;;;;;;5036729;28;20661;-58
2023/03/24 08:54:35;;;;;;;65.80;34.67;;;;;;;;;;5036776;28;20212;-58
2023/03/24 08:57:02;;;;;;;27.02;16.00;;;;;;;;;;5037016;28;20652;-58
2023/03/24 08:59:29;;;;;;;29.85;16.83;;;;;;;;;;5036707;28;20209;-58
2023/03/24 09:01:57;;;;;;;32.13;17.17;;;;;;;;;;5036649;28;20295;-58
2023/03/24 09:04:25;;;;;;;30.55;17.10;;;;;;;;;;5036582;28;20270;-58
2023/03/24 09:06:58;;;;;;;25.35;16.30;;;;;;;;;;5036537;28;20208;-57
2023/03/24 09:09:29;;;;;;;34.50;18.55;;;;;;;;;;5036809;28;20655;-58
2023/03/24 09:11:56;;;;;;;26.38;16.27;;;;;;;;;;5036321;28;20657;-58
2023/03/24 09:14:23;;;;;;;70.03;41.20;;;;;;;;;;5036383;28;20228;-58
2023/03/24 09:16:51;;;;;;;38.70;21.08;;;;;;;;;;5036491;28;20201;-58
2023/03/24 09:19:18;;;;;;;35.92;19.77;;;;;;;;;;5036322;28;20208;-58
2023/03/24 09:21:46;;;;;;;37.38;19.73;;;;;;;;;;5036295;28;20225;-57
2023/03/24 09:24:14;;;;;;;153.48;76.07;;;;;;;;;;5035990;28;20201;-58
2023/03/24 09:26:41;;;;;;;56.15;31.38;;;;;;;;;;5035805;28;20209;-58
2023/03/24 09:29:08;;;;;;;31.38;19.98;;;;;;;;;;5018508;28;20597;-58
2023/03/24 09:31:35;;;;;;;68.03;51.30;;;;;;;;;;5036106;28;20209;-58
2023/03/24 09:34:03;;;;;;;44.20;22.83;;;;;;;;;;5035874;28;20664;-57
2023/03/24 09:36:30;;;;;;;49.97;26.48;;;;;;;;;;5035811;28;20201;-58
2023/03/24 09:38:57;;;;;;;31.85;21.75;;;;;;;;;;5036051;28;20292;-58
2023/03/24 09:41:28;;;;;;;39.95;24.33;;;;;;;;;;5035962;28;20224;-58
2023/03/24 09:44:01;;;;;;;37.10;23.73;;;;;;;;;;5018507;28;20208;-58
2023/03/24 09:46:39;;;;;;;42.00;26.90;;;;;;;;;;5035757;28;20204;-58
2023/03/24 09:49:15;;;;;;;35.83;22.25;;;;;;;;;;5018537;28;20204;-58
2023/03/24 09:51:44;;;;;;;33.83;21.63;;;;;;;;;;5035887;28;20208;-58
2023/03/24 09:54:30;;;;;;;41.13;23.08;;;;;;;;;;5017695;28;20200;-58
2023/03/24 09:56:58;;;;;;;32.38;21.02;;;;;;;;;;5035582;28;20204;-58
2023/03/24 09:59:28;;;;;;;33.53;21.30;;;;;;;;;;5035424;28;20224;-58
2023/03/24 10:01:55;;;;;;;33.42;20.77;;;;;;;;;;5035528;28;20228;-58
2023/03/24 10:04:25;;;;;;;37.85;22.50;;;;;;;;;;5018095;28;20224;-58
2023/03/24 10:07:10;;;;;;;37.08;23.40;;;;;;;;;;5035396;28;20205;-58
2023/03/24 10:09:38;;;;;;;36.83;22.65;;;;;;;;;;5035293;28;20201;-58
2023/03/24 10:12:36;;;;;;;42.78;22.95;;;;;;;;;;5035133;28;20201;-58
2023/03/24 10:15:12;;;;;;;40.65;22.67;;;;;;;;;;5034235;28;20235;-58
2023/03/24 10:18:00;;;;;;;35.13;21.67;;;;;;;;;;5035427;28;20201;-58
2023/03/24 10:21:00;;;;;;;37.63;22.60;;;;;;;;;;5035255;28;20240;-58
2023/03/24 10:23:33;;;;;;;35.70;21.38;;;;;;;;;;5018041;28;20209;-58
2023/03/24 10:26:12;;;;;;;455.63;263.73;;;;;;;;;;5034907;28;20204;-58
2023/03/24 10:28:40;;;;;;;71.82;52.28;;;;;;;;;;5034903;28;20680;-57
2023/03/24 10:31:12;;;;;;;50.63;30.75;;;;;;;;;;5015749;28;20630;-58
2023/03/24 10:33:44;;;;;;;36.08;22.75;;;;;;;;;;4998032;28;20213;-57
2023/03/24 10:36:13;;;;;;;43.65;22.70;;;;;;;;;;5017122;28;20237;-58
2023/03/24 10:38:41;;;;;;;41.22;21.48;;;;;;;;;;5034888;28;20200;-57
2023/03/24 10:41:15;;;;;;;33.53;21.20;;;;;;;;;;5034557;28;20774;-58
2023/03/24 10:43:44;;;;;;;33.03;21.60;;;;;;;;;;5034751;28;20200;-58
2023/03/24 10:46:14;;;;;;;32.17;20.90;;;;;;;;;;5033772;28;20201;-58
2023/03/24 10:48:45;;;;;;;51.55;33.35;;;;;;;;;;5017727;28;20201;-57
2023/03/24 10:51:31;;;;;;;31.90;19.77;;;;;;;;;;5034512;28;20692;-58
2023/03/24 10:54:29;;;;;;;44.70;22.08;;;;;;;;;;5034937;28;20208;-58
2023/03/24 10:56:59;;;;;;;32.70;20.35;;;;;;;;;;4954149;29;20203;-58
2023/03/24 10:59:36;;;;;;;29.20;20.10;;;;;;;;;;4954205;29;20732;-58
2023/03/24 11:02:08;;;;;;;28.13;19.35;;;;;;;;;;4938532;29;20227;-58
2023/03/24 11:04:40;;;;;;;28.50;19.88;;;;;;;;;;4953424;28;20219;-58
2023/03/24 11:07:20;;;;;;;30.27;19.85;;;;;;;;;;4923038;29;20226;-58
2023/03/24 11:10:17;;;;;;;30.13;21.55;;;;;;;;;;4938245;29;20254;-58
2023/03/24 11:12:53;;;;;;;145.15;72.82;;;;;;;;;;4954078;29;20196;-57
2023/03/24 11:15:29;;;;;;;120.53;74.85;;;;;;;;;;4953976;29;20191;-58
2023/03/24 11:17:59;;;;;;;33.72;22.10;;;;;;;;;;4954054;29;20206;-58
2023/03/24 11:20:35;;;;;;;30.10;18.15;;;;;;;;;;4953857;29;20239;-58
2023/03/24 11:23:18;;;;;;;29.58;17.50;;;;;;;;;;4953862;29;20235;-59
2023/03/24 11:26:01;;;;;;;31.73;18.63;;;;;;;;;;4938024;29;20192;-59
2023/03/24 11:28:28;;;;;;;31.77;18.83;;;;;;;;;;4937929;29;20202;-59
2023/03/24 11:30:55;;;;;;;26.65;16.58;;;;;;;;;;4953520;29;20212;-59
2023/03/24 11:33:27;;;;;;;22.67;16.45;;;;;;;;;;4993236;28;20212;-59
2023/03/24 11:36:28;;;;;;;29.27;18.40;;;;;;;;;;5033735;28;20212;-59
2023/03/24 11:39:16;;;;;;;27.05;15.95;;;;;;;;;;5014008;28;20284;-59
2023/03/24 11:42:17;;;;;;;26.00;15.20;;;;;;;;;;5014143;28;20229;-59
2023/03/24 11:44:45;;;;;;;23.92;15.20;;;;;;;;;;4997258;28;20205;-59
2023/03/24 11:47:30;;;;;;;24.08;15.15;;;;;;;;;;5013807;28;20197;-59
2023/03/24 11:50:10;;;;;;;22.48;14.70;;;;;;;;;;5013131;28;20205;-59
2023/03/24 11:52:51;;;;;;;21.33;14.48;;;;;;;;;;5014147;28;20557;-59
2023/03/24 11:55:41;;;;;;;38.05;24.90;;;;;;;;;;5028943;28;20205;-59
2023/03/24 11:58:16;;;;;;;22.88;15.23;;;;;;;;;;5014274;28;20276;-59
2023/03/24 12:00:57;;;;;;;19.88;13.73;;;;;;;;;;5013844;28;20235;-59
2023/03/24 12:04:19;;;;;;;23.05;13.15;;;;;;;;;;5012719;28;20205;-59
2023/03/24 12:07:01;;;;;;;18.42;11.82;;;;;;;;;;4972543;28;20202;-59
2023/03/24 12:09:32;;;;;;;14.63;11.07;;;;;;;;;;5013963;28;20236;-59
2023/03/24 12:12:17;;;;;;;15.35;11.02;;;;;;;;;;5013639;28;20209;-59
2023/03/24 12:15:11;;;;;;;18.15;12.00;;;;;;;;;;5013587;28;20715;-59
2023/03/24 12:18:37;;;;;;;13.90;10.38;;;;;;;;;;5017602;28;20689;-59
2023/03/24 12:21:15;;;;;;;17.42;11.02;;;;;;;;;;5017401;28;20236;-59
2023/03/24 12:24:00;;;;;;;13.55;10.75;;;;;;;;;;5016712;28;20189;-58
2023/03/24 12:26:32;;;;;;;19.05;11.35;;;;;;;;;;5017607;28;20531;-59
2023/03/24 12:29:14;;;;;;;18.05;10.65;;;;;;;;;;5016332;28;20200;-59
2023/03/24 12:32:09;;;;;;;13.85;9.63;;;;;;;;;;5017655;28;20599;-58
2023/03/24 12:35:01;;;;;;;18.92;11.05;;;;;;;;;;5017585;28;20289;-59
2023/03/24 12:37:46;;;;;;;28.73;18.17;;;;;;;;;;5017117;28;20186;-59
2023/03/24 12:40:27;;;;;;;29.60;21.60;;;;;;;;;;5000045;28;20671;-60
2023/03/24 12:43:21;;;;;;;19.08;12.55;;;;;;;;;;5035821;28;20201;-59
2023/03/24 12:45:52;;;;;;;12.75;9.15;;;;;;;;;;5036926;28;20208;-60
2023/03/24 12:48:37;;;;;;;18.75;10.60;;;;;;;;;;5019514;28;20235;-59
2023/03/24 12:51:20;;;;;;;16.10;10.02;;;;;;;;;;5037055;28;20280;-61
2023/03/24 12:54:05;;;;;;;15.63;9.52;;;;;;;;;;5036754;28;20586;-61
2023/03/24 12:56:46;;;;;;;14.02;9.15;;;;;;;;;;5036991;28;20193;-60
2023/03/24 12:59:18;;;;;;;12.80;8.93;;;;;;;;;;5018967;28;20560;-60
2023/03/24 13:01:51;;;;;;;13.73;8.65;;;;;;;;;;5035703;28;20205;-60
2023/03/24 13:04:28;;;;;;;14.85;8.95;;;;;;;;;;5019141;28;20569;-60
2023/03/24 13:07:10;;;;;;;14.27;9.38;;;;;;;;;;5036767;28;20203;-60
2023/03/24 13:10:03;;;;;;;14.10;9.02;;;;;;;;;;5035521;28;20664;-60
2023/03/24 13:12:30;;;;;;;14.25;9.68;;;;;;;;;;5036291;28;20208;-59
2023/03/24 13:15:05;;;;;;;12.20;7.88;;;;;;;;;;5035948;28;20229;-61
2023/03/24 13:17:36;;;;;;;12.73;8.63;;;;;;;;;;5036558;28;20207;-61
2023/03/24 13:20:05;;;;;;;12.63;9.10;;;;;;;;;;5036116;28;20251;-61
2023/03/24 13:22:33;;;;;;;11.23;9.25;;;;;;;;;;5018462;28;20225;-60
2023/03/24 13:25:01;;;;;;;14.27;8.43;;;;;;;;;;5018716;28;20216;-60
2023/03/24 13:27:38;;;;;;;10.60;7.93;;;;;;;;;;5017753;28;20208;-60
2023/03/24 13:30:17;;;;;;;13.88;8.43;;;;;;;;;;5036181;28;20208;-60
2023/03/24 13:32:54;;;;;;;16.75;8.32;;;;;;;;;;5018642;28;20219;-59
2023/03/24 13:35:34;;;;;;;11.68;8.27;;;;;;;;;;5018560;28;20255;-60
2023/03/24 13:38:12;;;;;;;13.85;9.05;;;;;;;;;;5036066;28;20208;-61
2023/03/24 13:40:40;;;;;;;46.70;24.02;;;;;;;;;;5034988;28;20196;-61
2023/03/24 13:43:12;;;;;;;17.67;11.07;;;;;;;;;;5018564;28;20208;-62
2023/03/24 13:45:46;;;;;;;33.00;11.40;;;;;;;;;;5036015;28;20197;-61
2023/03/24 13:48:24;;;;;;;204.57;97.80;;;;;;;;;;5033897;28;20205;-60
2023/03/24 13:50:58;;;;;;;260.02;145.85;;;;;;;;;;5020550;28;20248;-60
2023/03/24 13:53:31;;;;;;;29.30;14.57;;;;;;;;;;5033522;28;20307;-59
2023/03/24 13:56:00;;;;;;;17.73;10.60;;;;;;;;;;5034157;28;20603;-61
2023/03/24 13:58:50;;;;;;;19.58;8.90;;;;;;;;;;4999470;28;20221;-59
2023/03/24 14:01:31;;;;;;;15.10;8.05;;;;;;;;;;4997065;28;20225;-61
2023/03/24 14:04:17;;;;;;;13.80;7.85;;;;;;;;;;5015701;28;20222;-60
2023/03/24 14:06:47;;;;;;;13.20;8.02;;;;;;;;;;5021782;28;20237;-61
2023/03/24 14:09:25;;;;;;;13.00;7.78;;;;;;;;;;5014318;28;20229;-62
2023/03/24 14:12:05;;;;;;;13.43;9.02;;;;;;;;;;4997388;28;20701;-61
2023/03/24 14:14:36;;;;;;;11.00;7.50;;;;;;;;;;5013212;28;20241;-61
2023/03/24 14:17:12;;;;;;;13.75;7.65;;;;;;;;;;5013933;28;20292;-61
2023/03/24 14:19:43;;;;;;;13.27;7.68;;;;;;;;;;5032355;28;20220;-61
2023/03/24 14:22:21;;;;;;;10.77;7.03;;;;;;;;;;5014300;28;20236;-60
2023/03/24 14:25:13;;;;;;;9.57;6.57;;;;;;;;;;5015138;28;20275;-60
2023/03/24 14:27:44;;;;;;;13.00;6.95;;;;;;;;;;5031976;28;20225;-60
2023/03/24 14:30:13;;;;;;;26.80;15.18;;;;;;;;;;5031725;28;20217;-60
2023/03/24 14:33:00;;;;;;;14.23;7.38;;;;;;;;;;5016043;28;20244;-60
2023/03/24 14:35:43;;;;;;;10.13;6.80;;;;;;;;;;5016145;28;20256;-59
2023/03/24 14:38:14;;;;;;;14.57;7.15;;;;;;;;;;5014152;28;20229;-59
2023/03/24 14:40:43;;;;;;;12.48;6.60;;;;;;;;;;5034084;28;20251;-60
2023/03/24 14:43:38;;;;;;;12.80;6.35;;;;;;;;;;5033597;28;20248;-59
2023/03/24 14:46:38;;;;;;;12.90;7.05;;;;;;;;;;5033753;28;20315;-60
2023/03/24 14:49:22;;;;;;;10.80;5.85;;;;;;;;;;5011192;28;20224;-59
2023/03/24 14:52:20;;;;;;;13.68;8.00;;;;;;;;;;5032750;28;20225;-59
2023/03/24 14:54:57;;;;;;;9.02;5.82;;;;;;;;;;5033050;28;20284;-60
2023/03/24 14:57:49;;;;;;;12.50;7.13;;;;;;;;;;5017215;28;20191;-60
2023/03/24 15:00:29;;;;;;;15.23;7.00;;;;;;;;;;5024658;28;20215;-60
2023/03/24 15:03:16;;;;;;;12.40;6.18;;;;;;;;;;5016940;28;20238;-60
2023/03/24 15:05:44;;;;;;;138.75;99.03;;;;;;;;;;5033936;28;20196;-59
2023/03/24 15:08:21;;;;;;;160.77;111.50;;;;;;;;;;5049196;28;20212;-60